Time;durP1;ratioP1;P1;durP2;ratioP2;P2;SDS_P1;SDS_P2;PMS_P1;PMS_P2;Temp;Humidity;BMP_temperature;BMP_pressure;BME280_temperature;BME280_humidity;BME280_pressure;Samples;Min_cycle;Max_cycle;Signal;HPM_P1;HPM_P2
2021/11/12 00:13:19;;;;;;;22.13;14.70;;;7.30;65.50;;;;;;4994489;28;20053;-66
2021/11/12 00:15:53;;;;;;;22.65;14.43;;;7.20;65.90;;;;;;4989643;28;20031;-66
2021/11/12 00:18:26;;;;;;;22.73;14.63;;;7.20;65.80;;;;;;4987962;28;20561;-66
2021/11/12 00:20:53;;;;;;;19.25;13.32;;;7.20;65.90;;;;;;4984402;28;20068;-66
2021/11/12 00:23:20;;;;;;;21.33;12.77;;;7.20;65.90;;;;;;4977957;28;20037;-66
2021/11/12 00:25:47;;;;;;;19.77;12.82;;;7.20;65.70;;;;;;4986394;28;31414;-66
2021/11/12 00:28:16;;;;;;;22.08;14.13;;;7.20;65.60;;;;;;4992895;28;20057;-66
2021/11/12 00:38:50;;;;;;;25.35;14.73;;;7.00;65.70;;;;;;5011682;28;20163;-66
2021/11/12 00:42:18;;;;;;;21.08;14.45;;;7.00;65.60;;;;;;5047779;28;20026;-66
2021/11/12 00:46:54;;;;;;;19.67;13.77;;;6.90;66.10;;;;;;5048807;28;20483;-66
2021/11/12 00:49:23;;;;;;;20.55;13.70;;;6.90;66.10;;;;;;5041774;28;20040;-66
2021/11/12 00:52:06;;;;;;;24.25;14.88;;;6.80;66.10;;;;;;5044090;28;20350;-66
2021/11/12 00:54:31;;;;;;;24.35;14.82;;;6.80;66.20;;;;;;5041058;28;20032;-66
2021/11/12 00:56:57;;;;;;;24.52;14.82;;;6.80;66.20;;;;;;5042298;28;20036;-66
2021/11/12 00:59:24;;;;;;;24.23;16.50;;;6.80;66.30;;;;;;5035739;28;20036;-66
2021/11/12 01:01:50;;;;;;;22.60;14.27;;;6.80;66.50;;;;;;5048358;28;20443;-66
2021/11/12 01:04:22;;;;;;;23.08;14.00;;;6.80;66.60;;;;;;5053331;28;20206;-66
2021/11/12 01:06:48;;;;;;;26.80;14.27;;;6.70;66.50;;;;;;5046287;28;20049;-66
2021/11/12 01:09:16;;;;;;;24.48;15.10;;;6.70;66.50;;;;;;5053433;28;20045;-66
2021/11/12 01:11:44;;;;;;;22.50;14.10;;;6.70;66.40;;;;;;5046374;28;20021;-66
2021/11/12 01:14:12;;;;;;;23.25;14.43;;;6.60;66.50;;;;;;5034288;28;20041;-66
2021/11/12 01:16:38;;;;;;;24.65;15.35;;;6.60;66.50;;;;;;5062072;28;20059;-66
2021/11/12 01:19:06;;;;;;;24.20;14.93;;;6.60;66.70;;;;;;5037229;28;20061;-66
2021/11/12 01:21:32;;;;;;;23.15;16.10;;;6.60;66.90;;;;;;5045869;28;20056;-66
2021/11/12 01:23:58;;;;;;;23.30;15.50;;;6.50;66.90;;;;;;5047143;28;20029;-66
2021/11/12 01:26:26;;;;;;;22.45;13.82;;;6.50;67.20;;;;;;5047591;28;20038;-66
2021/11/12 01:28:53;;;;;;;22.90;14.43;;;6.50;67.20;;;;;;5047595;28;20036;-66
2021/11/12 01:31:27;;;;;;;23.25;14.30;;;6.50;67.20;;;;;;5057141;28;20063;-66
2021/11/12 01:33:53;;;;;;;22.00;13.60;;;6.50;67.30;;;;;;5049185;28;20113;-66
2021/11/12 01:38:46;;;;;;;25.42;16.05;;;6.50;67.40;;;;;;5055956;28;20027;-66
2021/11/12 01:41:13;;;;;;;26.30;16.50;;;6.40;67.60;;;;;;5040252;28;20025;-66
2021/11/12 01:43:43;;;;;;;26.15;16.35;;;6.40;68.00;;;;;;5031922;28;20025;-66
2021/11/12 01:46:32;;;;;;;24.92;14.40;;;6.40;69.50;;;;;;5050500;28;20036;-66
2021/11/12 01:49:06;;;;;;;23.67;14.98;;;6.30;68.40;;;;;;5043453;28;20045;-66
2021/11/12 02:01:31;;;;;;;24.17;14.63;;;6.20;69.90;;;;;;5046598;28;20112;-66
2021/11/12 02:03:57;;;;;;;27.83;15.45;;;6.20;69.60;;;;;;5059094;28;20421;-66
2021/11/12 02:06:24;;;;;;;23.80;14.63;;;6.10;69.10;;;;;;5051136;28;20025;-66
2021/11/12 02:08:51;;;;;;;25.70;14.10;;;6.10;69.00;;;;;;5047100;28;20261;-66
2021/11/12 02:11:19;;;;;;;21.02;13.85;;;6.10;68.80;;;;;;5057844;28;20037;-66
2021/11/12 02:13:45;;;;;;;23.10;15.20;;;6.10;68.50;;;;;;5035043;28;20033;-66
2021/11/12 02:16:17;;;;;;;25.20;14.88;;;6.10;68.50;;;;;;5038386;28;20493;-66
2021/11/12 02:18:44;;;;;;;23.98;14.50;;;6.10;68.60;;;;;;5045840;28;20039;-66
2021/11/12 02:23:51;;;;;;;23.20;15.30;;;6.10;70.40;;;;;;5057306;28;20033;-66
2021/11/12 02:26:26;;;;;;;25.95;14.93;;;6.00;70.10;;;;;;5039480;28;22835;-66
2021/11/12 02:28:56;;;;;;;20.25;12.43;;;5.90;69.70;;;;;;5033391;28;20120;-66
2021/11/12 02:31:25;;;;;;;24.53;14.50;;;5.90;71.20;;;;;;5067655;28;20025;-66
2021/11/12 02:33:53;;;;;;;26.33;15.13;;;5.80;73.50;;;;;;5045883;28;20076;-66
2021/11/12 02:36:19;;;;;;;30.08;16.25;;;5.80;74.60;;;;;;5052968;28;20501;-66
2021/11/12 02:38:49;;;;;;;26.15;16.42;;;5.70;74.30;;;;;;5052403;28;20051;-66
2021/11/12 02:41:15;;;;;;;28.05;15.45;;;5.80;73.90;;;;;;5043773;28;20104;-66
2021/11/12 02:43:43;;;;;;;25.38;15.82;;;5.80;73.40;;;;;;5062569;28;20111;-66
2021/11/12 02:46:13;;;;;;;24.25;14.82;;;5.80;73.30;;;;;;5050016;28;20406;-66
2021/11/12 02:48:41;;;;;;;26.42;16.65;;;5.90;73.40;;;;;;5058368;28;20036;-66
2021/11/12 02:51:10;;;;;;;23.75;15.05;;;5.90;75.10;;;;;;5055143;28;20037;-66
2021/11/12 02:53:37;;;;;;;28.60;17.80;;;5.90;74.40;;;;;;5047500;28;20032;-66
2021/11/12 02:56:07;;;;;;;26.55;16.15;;;5.80;75.00;;;;;;5040033;28;20021;-66
2021/11/12 02:58:34;;;;;;;23.03;15.17;;;5.80;74.50;;;;;;5035120;28;20034;-66
2021/11/12 03:01:00;;;;;;;27.25;17.02;;;5.80;74.10;;;;;;5053458;28;20268;-66
2021/11/12 03:03:28;;;;;;;26.35;16.60;;;5.80;75.00;;;;;;5053172;28;20024;-66
2021/11/12 03:05:54;;;;;;;27.70;16.50;;;5.80;75.10;;;;;;5050977;28;20047;-66
2021/11/12 03:08:19;;;;;;;27.02;16.80;;;5.80;74.80;;;;;;5057325;28;20503;-66
2021/11/12 03:10:46;;;;;;;25.02;16.05;;;5.80;74.90;;;;;;5038403;28;20029;-66
2021/11/12 03:13:12;;;;;;;28.80;16.20;;;5.80;74.50;;;;;;5053597;28;20046;-66
2021/11/12 03:15:38;;;;;;;26.23;16.25;;;5.80;75.00;;;;;;5057939;28;20029;-66
2021/11/12 03:18:04;;;;;;;25.77;16.20;;;5.80;76.50;;;;;;5048721;28;20039;-66
2021/11/12 03:20:30;;;;;;;24.08;15.55;;;5.80;75.10;;;;;;5048420;28;20025;-66
2021/11/12 03:23:16;;;;;;;24.70;15.60;;;5.80;74.70;;;;;;5057548;28;20057;-66
2021/11/12 03:26:13;;;;;;;22.98;13.48;;;5.80;74.40;;;;;;5055116;28;20546;-66
2021/11/12 04:03:58;;;;;;;26.02;16.55;;;6.00;77.40;;;;;;5043307;28;20021;-66
2021/11/12 05:10:57;;;;;;;21.65;14.32;;;5.80;77.90;;;;;;5045489;28;20094;-66
2021/11/12 05:35:08;;;;;;;30.17;18.30;;;5.80;81.10;;;;;;5043923;28;20473;-66
2021/11/12 05:43:39;;;;;;;26.92;16.52;;;5.80;80.10;;;;;;4993423;28;20492;-64
2021/11/12 05:51:40;;;;;;;27.15;17.33;;;5.80;78.90;;;;;;4993881;28;20136;-65
2021/11/12 05:56:55;;;;;;;28.73;17.90;;;5.70;79.10;;;;;;4993795;28;20037;-66
2021/11/12 05:59:23;;;;;;;28.92;18.30;;;5.70;79.30;;;;;;4993527;28;20121;-66
2021/11/12 06:01:50;;;;;;;28.00;16.88;;;5.70;79.10;;;;;;4992199;28;20034;-66
2021/11/12 06:04:16;;;;;;;27.95;17.33;;;5.70;79.00;;;;;;4987565;28;20158;-66
2021/11/12 06:06:42;;;;;;;29.48;17.50;;;5.60;78.70;;;;;;4992300;28;20489;-66
2021/11/12 06:09:09;;;;;;;23.20;15.35;;;5.70;78.60;;;;;;4985225;28;20054;-65
2021/11/12 06:11:35;;;;;;;26.27;15.65;;;5.60;78.40;;;;;;5022550;28;20040;-66
2021/11/12 06:14:02;;;;;;;25.38;16.05;;;5.60;78.20;;;;;;5049648;28;20112;-66
2021/11/12 06:16:29;;;;;;;28.83;16.75;;;5.60;77.90;;;;;;5043284;28;20104;-67
2021/11/12 06:18:55;;;;;;;23.63;15.20;;;5.60;77.80;;;;;;5047589;28;20025;-66
2021/11/12 06:21:22;;;;;;;24.13;16.05;;;5.60;77.60;;;;;;5047410;28;20049;-66
2021/11/12 06:23:48;;;;;;;24.40;15.60;;;5.60;77.50;;;;;;5046505;28;20033;-66
2021/11/12 06:26:14;;;;;;;24.30;14.90;;;5.60;77.30;;;;;;5040264;28;20053;-66
2021/11/12 06:28:41;;;;;;;24.20;15.23;;;5.50;77.00;;;;;;5036015;28;20404;-66
2021/11/12 06:31:06;;;;;;;26.75;16.15;;;5.50;76.80;;;;;;5050078;28;20052;-66
2021/11/12 06:33:32;;;;;;;26.40;16.58;;;5.50;77.30;;;;;;5040605;28;20065;-66
2021/11/12 06:35:59;;;;;;;24.17;14.65;;;5.50;77.50;;;;;;5038100;28;20513;-66
2021/11/12 06:38:30;;;;;;;21.90;14.50;;;5.40;77.30;;;;;;5035870;28;20025;-65
2021/11/12 06:40:58;;;;;;;26.42;16.10;;;5.40;76.90;;;;;;5047796;28;20035;-66
2021/11/12 06:43:28;;;;;;;26.27;16.38;;;5.40;77.20;;;;;;5049268;28;20523;-66
2021/11/12 06:51:24;;;;;;;33.72;21.20;;;5.30;76.90;;;;;;5040939;28;20068;-65
2021/11/12 06:53:52;;;;;;;30.30;18.77;;;5.40;77.20;;;;;;5038441;28;20108;-66
2021/11/12 06:56:19;;;;;;;28.92;17.10;;;5.30;77.00;;;;;;5047152;28;20514;-66
2021/11/12 06:58:46;;;;;;;37.38;17.75;;;5.30;76.90;;;;;;5034001;28;20124;-66
2021/11/12 07:01:13;;;;;;;32.17;16.42;;;5.30;76.70;;;;;;5037607;28;20068;-66
2021/11/12 07:03:39;;;;;;;30.70;16.17;;;5.30;76.70;;;;;;5059068;28;20036;-66
2021/11/12 07:06:06;;;;;;;31.25;16.13;;;5.40;76.50;;;;;;5046029;28;20036;-66
2021/11/12 07:08:32;;;;;;;27.90;15.68;;;5.40;76.30;;;;;;5037178;28;20407;-66
2021/11/12 07:10:58;;;;;;;24.73;15.30;;;5.50;76.10;;;;;;5047978;28;20059;-66
2021/11/12 07:13:25;;;;;;;71.05;35.33;;;5.50;77.50;;;;;;5048202;28;20060;-66
2021/11/12 07:15:52;;;;;;;35.88;20.92;;;5.50;77.60;;;;;;5055606;28;20078;-66
2021/11/12 07:18:24;;;;;;;29.85;17.50;;;5.50;77.30;;;;;;5051769;28;20036;-66
2021/11/12 07:20:52;;;;;;;29.65;18.30;;;5.60;78.10;;;;;;5046289;28;20112;-66
2021/11/12 07:23:19;;;;;;;29.15;18.23;;;5.60;78.30;;;;;;5042212;28;20489;-66
2021/11/12 07:25:46;;;;;;;29.00;17.88;;;5.70;77.80;;;;;;5033930;28;20040;-66
2021/11/12 07:28:13;;;;;;;25.60;15.88;;;5.80;77.30;;;;;;5036733;28;20049;-66
2021/11/12 07:30:41;;;;;;;23.95;16.08;;;5.90;77.10;;;;;;5056768;28;20032;-66
2021/11/12 07:33:13;;;;;;;24.00;16.42;;;5.90;76.50;;;;;;5050310;28;20501;-66
2021/11/12 07:35:48;;;;;;;27.45;16.63;;;6.00;76.10;;;;;;5046556;28;20029;-66
2021/11/12 07:38:20;;;;;;;28.08;16.85;;;6.20;76.00;;;;;;5052965;28;20035;-65
2021/11/12 07:41:01;;;;;;;27.73;17.08;;;6.30;75.60;;;;;;5036427;28;20104;-65
2021/11/12 07:46:33;;;;;;;21.30;14.85;;;7.10;74.60;;;;;;5036854;28;20067;-66
2021/11/12 07:48:59;;;;;;;23.15;15.90;;;7.90;72.60;;;;;;5051154;28;20063;-66
2021/11/12 07:51:26;;;;;;;27.38;16.63;;;8.50;70.70;;;;;;5043619;28;20017;-66
2021/11/12 07:53:52;;;;;;;26.20;17.20;;;8.60;70.00;;;;;;5050050;28;20128;-66
2021/11/12 07:56:17;;;;;;;25.88;17.05;;;8.50;70.00;;;;;;5034627;28;20097;-66
2021/11/12 07:58:45;;;;;;;26.58;18.40;;;8.60;69.90;;;;;;5049892;28;20124;-66
2021/11/12 08:01:11;;;;;;;26.40;17.55;;;8.80;69.50;;;;;;5040575;28;20028;-66
2021/11/12 08:03:37;;;;;;;28.73;19.35;;;9.30;68.50;;;;;;5044278;28;20120;-67
2021/11/12 08:06:06;;;;;;;31.20;20.02;;;9.70;67.40;;;;;;5041712;28;20021;-66
2021/11/12 08:08:35;;;;;;;27.55;19.40;;;9.90;66.80;;;;;;5045978;28;20470;-66
2021/11/12 08:11:09;;;;;;;28.75;19.63;;;10.00;66.60;;;;;;5043187;28;20347;-66
2021/11/12 08:13:40;;;;;;;29.40;19.20;;;9.90;66.60;;;;;;5032872;28;20025;-66
2021/11/12 08:21:39;;;;;;;24.27;18.40;;;9.50;67.90;;;;;;5041179;28;20061;-66
2021/11/12 08:29:28;;;;;;;27.95;19.15;;;9.20;69.60;;;;;;5032382;28;20057;-66
2021/11/12 08:41:29;;;;;;;28.92;20.13;;;8.80;71.20;;;;;;4988943;28;20583;-66
2021/11/12 08:43:20;;;;;;;35.55;20.35;;;8.70;71.80;;;;;;4971730;28;20038;-66
2021/11/12 08:48:25;;;;;;;29.90;20.40;;;8.70;72.20;;;;;;4985340;28;21038;-66
2021/11/12 08:50:52;;;;;;;31.20;21.13;;;8.70;72.70;;;;;;4980594;28;20551;-66
2021/11/12 08:53:19;;;;;;;31.20;20.48;;;8.70;73.00;;;;;;4996550;28;20129;-66
2021/11/12 08:55:46;;;;;;;32.17;20.20;;;8.70;73.00;;;;;;4984331;28;20099;-66
2021/11/12 08:58:13;;;;;;;44.88;20.75;;;8.80;73.20;;;;;;4993267;28;20033;-66
2021/11/12 09:00:41;;;;;;;80.68;25.55;;;8.80;75.80;;;;;;4977396;28;20043;-66
2021/11/12 09:03:08;;;;;;;71.68;25.13;;;8.80;77.00;;;;;;4983634;28;20501;-66
2021/11/12 09:05:35;;;;;;;106.38;27.60;;;8.90;78.00;;;;;;4980479;28;20033;-65
2021/11/12 09:08:01;;;;;;;86.03;26.33;;;8.90;77.20;;;;;;4986149;28;20073;-66
2021/11/12 09:10:31;;;;;;;97.53;28.67;;;9.00;78.00;;;;;;4985234;28;20026;-66
2021/11/12 09:13:00;;;;;;;121.53;27.13;;;9.00;77.60;;;;;;5013529;28;20032;-65
2021/11/12 09:15:32;;;;;;;83.40;24.23;;;9.10;79.10;;;;;;5047291;28;20032;-66
2021/11/12 09:18:00;;;;;;;72.38;19.48;;;9.20;79.20;;;;;;5043250;28;20032;-65
2021/11/12 09:20:26;;;;;;;140.18;28.30;;;9.20;81.30;;;;;;5050119;28;20029;-65
2021/11/12 09:22:55;;;;;;;151.13;30.23;;;9.10;82.40;;;;;;5047008;28;20026;-65
2021/11/12 09:25:22;;;;;;;222.00;32.75;;;9.10;83.30;;;;;;5034180;28;20017;-65
2021/11/12 09:27:48;;;;;;;165.82;30.33;;;9.10;82.50;;;;;;5045204;28;20259;-66
2021/11/12 09:30:23;;;;;;;112.55;27.90;;;9.10;82.20;;;;;;5046542;28;20103;-66
2021/11/12 09:32:56;;;;;;;113.35;28.52;;;9.10;82.50;;;;;;5043290;28;20040;-66
2021/11/12 09:35:22;;;;;;;117.88;29.70;;;9.20;84.10;;;;;;5045104;28;20033;-64
2021/11/12 09:37:48;;;;;;;159.50;31.23;;;9.20;84.70;;;;;;5031442;28;20354;-64
2021/11/12 09:40:15;;;;;;;263.45;108.28;;;9.20;83.90;;;;;;5055076;28;20104;-64
2021/11/12 09:42:43;;;;;;;134.27;41.83;;;9.30;83.40;;;;;;5051942;28;20024;-64
2021/11/12 09:45:11;;;;;;;117.78;30.80;;;9.40;83.20;;;;;;5043109;28;20474;-64
2021/11/12 09:47:38;;;;;;;111.03;32.28;;;9.40;82.80;;;;;;5045502;28;20031;-64
2021/11/12 09:50:08;;;;;;;130.98;30.45;;;9.50;82.50;;;;;;5045266;28;20021;-64
2021/11/12 09:52:35;;;;;;;90.03;29.80;;;9.70;82.10;;;;;;5048670;28;20023;-64
2021/11/12 09:55:01;;;;;;;159.02;28.55;;;9.80;81.80;;;;;;5048740;28;20029;-64
2021/11/12 09:57:27;;;;;;;130.68;28.60;;;10.00;82.40;;;;;;5038347;28;20029;-64
2021/11/12 09:59:59;;;;;;;195.75;32.97;;;10.00;82.20;;;;;;5042804;28;20112;-64
2021/11/12 10:02:30;;;;;;;126.57;30.45;;;10.00;81.70;;;;;;5055573;28;20150;-64
2021/11/12 10:04:56;;;;;;;135.68;29.77;;;10.00;81.60;;;;;;5045554;28;20545;-64
2021/11/12 10:07:23;;;;;;;136.88;30.50;;;10.00;81.70;;;;;;5034019;28;20026;-64
2021/11/12 10:10:06;;;;;;;176.25;29.65;;;10.00;81.40;;;;;;5044352;28;20061;-64
2021/11/12 10:12:41;;;;;;;128.77;30.73;;;10.10;81.20;;;;;;5044034;28;20032;-64
2021/11/12 10:15:20;;;;;;;134.05;29.92;;;10.10;81.30;;;;;;5046401;28;20032;-64
2021/11/12 10:17:48;;;;;;;182.95;30.42;;;10.20;81.00;;;;;;5039174;28;20032;-64
2021/11/12 10:20:17;;;;;;;121.13;28.45;;;10.30;80.90;;;;;;5045349;28;20025;-64
2021/11/12 10:22:45;;;;;;;98.32;28.45;;;10.40;80.40;;;;;;5042370;28;20024;-64
2021/11/12 10:25:12;;;;;;;100.93;28.63;;;10.50;80.50;;;;;;5054602;28;20111;-64
2021/11/12 10:27:41;;;;;;;115.38;28.58;;;10.50;80.40;;;;;;5045809;28;20128;-64
2021/11/12 10:30:14;;;;;;;118.90;29.08;;;10.60;81.30;;;;;;5048416;28;20025;-64
2021/11/12 10:32:42;;;;;;;80.38;27.77;;;10.60;81.30;;;;;;5048412;28;20067;-65
2021/11/12 10:35:18;;;;;;;144.18;30.30;;;10.70;82.40;;;;;;5048995;28;20043;-64
2021/11/12 10:37:44;;;;;;;128.02;36.30;;;10.80;81.80;;;;;;5034425;28;20025;-64
2021/11/12 10:40:14;;;;;;;162.02;37.45;;;10.80;82.00;;;;;;5037421;28;20487;-64
2021/11/12 10:42:46;;;;;;;143.88;30.80;;;10.80;82.00;;;;;;5037125;28;20480;-64
2021/11/12 10:45:20;;;;;;;113.35;31.17;;;10.80;82.00;;;;;;5042867;28;20071;-64
2021/11/12 10:48:12;;;;;;;142.25;30.42;;;10.90;82.00;;;;;;5036619;28;20024;-64
2021/11/12 10:50:41;;;;;;;104.75;28.85;;;11.20;81.50;;;;;;5041090;28;20033;-64
2021/11/12 10:53:11;;;;;;;118.15;33.03;;;11.30;81.10;;;;;;5032930;28;20393;-64
2021/11/12 10:55:38;;;;;;;88.55;29.08;;;11.50;80.90;;;;;;5034910;28;20029;-64
2021/11/12 10:58:10;;;;;;;80.57;29.13;;;11.50;81.10;;;;;;5037171;28;20052;-64
2021/11/12 11:00:45;;;;;;;55.80;28.85;;;11.50;81.10;;;;;;5044872;28;20057;-65
2021/11/12 11:03:17;;;;;;;76.88;28.52;;;11.50;82.10;;;;;;5042395;28;20029;-64
2021/11/12 11:05:44;;;;;;;60.80;29.23;;;11.70;81.00;;;;;;5037618;28;20025;-64
2021/11/12 11:08:21;;;;;;;64.82;29.58;;;11.80;81.00;;;;;;5048469;28;20072;-64
2021/11/12 11:10:51;;;;;;;55.28;28.88;;;11.80;81.00;;;;;;5048532;28;20535;-65
2021/11/12 11:13:20;;;;;;;61.38;29.38;;;11.90;81.00;;;;;;5052965;28;20040;-65
2021/11/12 11:15:51;;;;;;;52.17;27.30;;;11.90;80.90;;;;;;5044723;28;20029;-65
2021/11/12 11:18:37;;;;;;;51.78;28.38;;;12.10;81.00;;;;;;5054200;28;20056;-64
2021/11/12 11:21:08;;;;;;;58.03;28.00;;;12.20;81.30;;;;;;5058368;28;20028;-65
2021/11/12 11:24:06;;;;;;;50.85;27.73;;;12.30;80.80;;;;;;5047226;28;20660;-65
2021/11/12 11:26:44;;;;;;;52.60;27.98;;;12.50;80.40;;;;;;5051708;28;20094;-64
2021/11/12 11:29:14;;;;;;;47.65;28.40;;;12.60;80.10;;;;;;5053543;28;20029;-64
2021/11/12 11:31:41;;;;;;;46.77;28.20;;;12.70;80.00;;;;;;5034054;28;20022;-64
2021/11/12 11:34:07;;;;;;;43.95;27.20;;;12.70;79.70;;;;;;5036334;28;20033;-64
2021/11/12 11:36:36;;;;;;;44.95;26.52;;;12.80;80.10;;;;;;5035325;28;20052;-64
2021/11/12 11:39:08;;;;;;;45.08;27.13;;;12.80;80.00;;;;;;5036311;28;20389;-64
2021/11/12 11:41:35;;;;;;;47.85;28.33;;;12.80;80.00;;;;;;5036454;28;20063;-65
2021/11/12 11:44:01;;;;;;;48.67;28.52;;;12.80;79.90;;;;;;5032744;28;20029;-64
2021/11/12 11:46:34;;;;;;;46.20;27.70;;;12.90;79.70;;;;;;5051976;28;20032;-64
2021/11/12 11:49:07;;;;;;;48.53;28.30;;;13.10;79.50;;;;;;5046446;28;20037;-64
2021/11/12 11:51:36;;;;;;;43.10;27.40;;;13.30;79.40;;;;;;5039495;28;20087;-64
2021/11/12 11:54:10;;;;;;;39.92;26.75;;;13.80;78.10;;;;;;5035900;28;20026;-64
2021/11/12 11:56:42;;;;;;;40.88;25.83;;;14.70;75.90;;;;;;5035877;28;20017;-65
2021/11/12 11:59:29;;;;;;;36.10;22.88;;;15.00;74.40;;;;;;5032882;28;20049;-65
2021/11/12 12:02:00;;;;;;;36.67;23.42;;;16.00;72.30;;;;;;5032250;28;20116;-64
2021/11/12 12:04:34;;;;;;;33.17;22.63;;;17.40;69.50;;;;;;5047693;28;20084;-65
2021/11/12 12:07:18;;;;;;;31.45;21.92;;;16.90;67.50;;;;;;5049685;28;20036;-64
2021/11/12 12:09:51;;;;;;;31.17;20.67;;;16.80;68.50;;;;;;5036895;28;20504;-64
2021/11/12 12:12:34;;;;;;;31.40;21.60;;;16.50;68.40;;;;;;5035508;28;20493;-65
2021/11/12 12:15:07;;;;;;;28.65;21.70;;;16.20;69.50;;;;;;5035148;28;20022;-65
2021/11/12 12:17:34;;;;;;;26.23;19.60;;;16.00;70.50;;;;;;5035620;28;20163;-64
2021/11/12 13:26:03;;;;;;;18.23;11.45;;;15.30;75.10;;;;;;5030263;28;20092;-66
2021/11/12 13:28:30;;;;;;;17.30;11.32;;;15.30;75.00;;;;;;5045203;28;20416;-66
2021/11/12 13:31:08;;;;;;;18.73;10.60;;;15.40;74.70;;;;;;5033107;28;20116;-66
2021/11/12 13:33:51;;;;;;;17.98;10.32;;;15.40;74.90;;;;;;5033490;28;20380;-66
2021/11/12 13:36:29;;;;;;;17.88;10.65;;;15.30;75.00;;;;;;5039598;28;20029;-66
2021/11/12 13:39:19;;;;;;;24.17;11.10;;;15.20;75.20;;;;;;5040843;28;20607;-66
2021/11/12 13:41:58;;;;;;;19.00;10.63;;;15.10;75.60;;;;;;5032634;28;20025;-66
2021/11/12 13:44:32;;;;;;;13.88;9.55;;;15.00;76.20;;;;;;5035714;28;20025;-66
2021/11/12 13:47:03;;;;;;;18.48;10.27;;;14.90;76.70;;;;;;5029005;28;20392;-66
2021/11/12 13:49:35;;;;;;;19.52;10.43;;;14.80;76.80;;;;;;5045537;28;20080;-66
2021/11/12 13:52:06;;;;;;;19.23;9.95;;;14.80;77.10;;;;;;5032626;28;20041;-66
2021/11/12 13:54:47;;;;;;;18.77;10.27;;;14.70;77.60;;;;;;5033046;28;20025;-66
2021/11/12 13:57:22;;;;;;;17.15;9.48;;;14.70;77.70;;;;;;5032732;28;20041;-66
2021/11/12 13:59:54;;;;;;;18.77;9.70;;;14.60;78.00;;;;;;5036365;28;20025;-66
2021/11/12 14:02:21;;;;;;;15.88;8.07;;;14.70;78.30;;;;;;5036544;28;20075;-66
2021/11/12 14:04:47;;;;;;;14.10;9.35;;;14.70;78.10;;;;;;5049925;28;20086;-66
2021/11/12 14:07:22;;;;;;;17.08;9.45;;;14.80;78.00;;;;;;5037934;28;20021;-66
2021/11/12 14:10:09;;;;;;;16.70;9.45;;;15.00;77.40;;;;;;5036495;28;20087;-66
2021/11/12 14:12:49;;;;;;;19.00;9.90;;;15.10;76.90;;;;;;5036980;28;20040;-66
2021/11/12 14:15:21;;;;;;;17.73;9.95;;;15.10;76.70;;;;;;5036844;28;20144;-66
2021/11/12 14:17:59;;;;;;;16.13;9.63;;;15.00;76.80;;;;;;5036045;28;20517;-66
2021/11/12 14:20:33;;;;;;;18.25;9.85;;;15.00;77.10;;;;;;5035045;28;20380;-66
2021/11/12 14:23:21;;;;;;;16.58;9.70;;;15.00;77.30;;;;;;5032604;28;20519;-66
2021/11/12 14:28:41;;;;;;;18.90;9.98;;;15.00;77.40;;;;;;5049295;28;20056;-66
2021/11/12 14:31:23;;;;;;;16.42;10.13;;;15.00;77.50;;;;;;5027303;28;20087;-66
2021/11/12 14:34:05;;;;;;;19.67;9.38;;;15.00;77.60;;;;;;5034567;28;20333;-65
2021/11/12 14:36:37;;;;;;;20.42;9.93;;;15.00;77.90;;;;;;5036083;28;20021;-66
2021/11/12 14:42:10;;;;;;;15.63;9.90;;;14.90;78.40;;;;;;5038752;28;20025;-65
2021/11/12 14:44:58;;;;;;;18.35;9.30;;;14.80;79.00;;;;;;5044828;28;20019;-66
2021/11/12 14:48:17;;;;;;;19.58;9.63;;;14.80;79.60;;;;;;5036436;28;20017;-66
2021/11/12 14:53:31;;;;;;;15.18;8.75;;;14.70;80.40;;;;;;5036072;28;20113;-66
2021/11/12 14:58:33;;;;;;;17.65;8.32;;;14.60;81.40;;;;;;5047745;28;20128;-65
2021/11/12 15:01:12;;;;;;;13.07;8.52;;;14.60;81.20;;;;;;5037130;28;20028;-65
2021/11/12 15:03:43;;;;;;;12.90;8.05;;;14.60;81.30;;;;;;5039167;28;20025;-65
2021/11/12 15:06:11;;;;;;;12.20;6.88;;;14.50;81.70;;;;;;5046248;28;20388;-65
2021/11/12 15:08:45;;;;;;;11.73;7.80;;;14.60;82.40;;;;;;5036314;28;20037;-66
2021/11/12 15:11:11;;;;;;;12.90;7.65;;;14.60;82.10;;;;;;5045484;28;20454;-66
2021/11/12 15:13:39;;;;;;;12.68;6.75;;;14.50;82.30;;;;;;5033010;28;20112;-65
2021/11/12 15:19:05;;;;;;;14.82;6.85;;;14.50;82.90;;;;;;5001146;28;20094;-65
2021/11/12 15:24:13;;;;;;;11.88;6.57;;;14.50;83.00;;;;;;4997657;28;20497;-66
2021/11/12 15:29:30;;;;;;;9.48;5.40;;;14.50;83.40;;;;;;4993956;28;20092;-65
2021/11/12 15:32:16;;;;;;;10.93;5.07;;;14.40;83.80;;;;;;4992252;28;20033;-66
2021/11/12 15:34:50;;;;;;;11.98;6.35;;;14.40;83.90;;;;;;5008209;28;20042;-65
2021/11/12 15:44:50;;;;;;;12.50;5.35;;;14.30;84.30;;;;;;5003684;28;20018;-66
2021/11/12 15:47:28;;;;;;;9.85;5.57;;;14.30;85.00;;;;;;5008387;28;20045;-66
2021/11/12 15:50:09;;;;;;;12.45;5.32;;;14.20;84.80;;;;;;4975825;28;20525;-66
2021/11/12 15:52:47;;;;;;;11.95;4.70;;;14.20;85.00;;;;;;5004881;28;20525;-65
2021/11/12 15:58:03;;;;;;;14.32;5.25;;;14.10;85.30;;;;;;5040912;28;20676;-65
2021/11/12 16:00:57;;;;;;;14.13;5.18;;;14.10;85.20;;;;;;5049379;28;20075;-65
2021/11/12 16:03:49;;;;;;;9.70;4.15;;;14.10;85.30;;;;;;5040828;28;20040;-65
2021/11/12 16:09:02;;;;;;;11.40;4.05;;;14.10;85.50;;;;;;5044433;28;20087;-65
2021/11/12 16:12:03;;;;;;;19.58;4.55;;;14.00;85.60;;;;;;5055117;28;20017;-65
2021/11/12 16:14:21;;;;;;;11.13;4.55;;;14.00;85.70;;;;;;5037051;28;20033;-65
2021/11/12 16:19:29;;;;;;;10.60;5.18;;;14.00;85.90;;;;;;5051025;28;20447;-65
2021/11/12 16:24:48;;;;;;;14.73;5.43;;;13.90;85.90;;;;;;5040716;28;20541;-66
2021/11/12 16:27:15;;;;;;;24.80;19.73;;;13.90;85.70;;;;;;5039396;28;20053;-66
2021/11/12 16:29:44;;;;;;;13.60;6.30;;;13.90;85.70;;;;;;5043599;28;20093;-66
2021/11/12 16:32:20;;;;;;;11.63;5.50;;;13.90;85.60;;;;;;5046095;28;20029;-66
2021/11/12 16:34:49;;;;;;;13.20;6.65;;;13.90;85.70;;;;;;5031519;28;20075;-66
2021/11/12 16:37:18;;;;;;;12.60;6.43;;;13.80;85.70;;;;;;5035744;28;20109;-66
2021/11/12 16:42:41;;;;;;;18.00;8.30;;;13.80;85.70;;;;;;5033798;28;20033;-66
2021/11/12 16:50:15;;;;;;;21.10;9.65;;;13.70;85.40;;;;;;5057295;28;20095;-66
2021/11/12 16:55:49;;;;;;;17.85;8.65;;;13.60;85.50;;;;;;5048715;28;20029;-66
2021/11/12 17:06:19;;;;;;;21.58;8.02;;;13.60;85.20;;;;;;5033939;28;20511;-66
2021/11/12 17:22:36;;;;;;;23.17;10.57;;;13.50;85.50;;;;;;5033287;28;20477;-66
2021/11/12 17:46:58;;;;;;;16.50;6.90;;;13.50;87.00;;;;;;4988107;28;20034;-66
2021/11/12 18:13:02;;;;;;;21.63;7.95;;;13.30;89.10;;;;;;5050487;28;19999;-66
